Decoded Metar for KPRO (PERRY MUNI in IA, USA) (IATA:N/A) | Meteo·Mobile Aviation Weather
aviador You're here:

KPRO Decoded Metar

PERRY MUNI in IA, USA
Report Time2019-04-23 08:15:00
UTC Time2019-04-23 08:17:01
Flight Rules ifr IFR
Wind350° at 11 kt
W.Decomp.*RWY 32: 9.7 kt HW 5.2 kt RCW
RWY 04: 6.8 kt HW 8.7 kt LCW
Visibility9999 m
Phenomena:N/A
Clouds:Overcast 009 Hf
Expected CloudBase > 400 ft AGL from Temp-Dew spread
Ceiling900 ft
Temp08°C (ISA -5)
Dew Point07°C (93% RH)
AAT3.3°C
QNH1019 hPa
Density Alt348 ft
Elevation1,010 ft
Report Wrong Elevation
Raw Report
KPRO 230815Z AUTO 35011KT 10SM OVC009 08/07 A3008 RMK AO2
T00800072=

Extra information for KPRO:More info

Metar Taf Metar & Taf Last 4 Metars F.Rules Stats Wind Profile Meteogram Temp Stats Airport Information Weather charts Add Link Nearby VenuesMetar ALERT Operation Metar Decoded Social comments

AIRNAV info for KPRO